This is the latest recevied weather packets stored in our database for station/object WA1RYQ. If no packets are shown the sender has not sent any weather packets the latest 10 day(s).
| Time | Temp. | Humidity | Pressure | Rain* | Wind** | Luminosity | Snow |
|---|---|---|---|---|---|---|---|
| 1777989643 | 25.56° C | 69% | 1016 hPa | 0 mm | - | 464 W/m² | - |
| 1777988445 | 25.56° C | 71% | 1015.7 hPa | 0 mm | - | 545 W/m² | - |
| 1777986911 | 24.44° C | 72% | 1015.5 hPa | 0 mm | - | 427 W/m² | - |
| 1777986346 | 24.44° C | 75% | 1015.5 hPa | 0 mm | - | 392 W/m² | - |
| 1777982435 | 21.67° C | 83% | 1015.8 hPa | 0 mm | - | 155 W/m² | - |
| 1777981852 | 21.11° C | 85% | 1015.5 hPa | 0 mm | - | 113 W/m² | - |
| 1777981511 | 20.56° C | 85% | 1015.5 hPa | 0 mm | - | 93 W/m² | - |
| 1777980046 | 20° C | 86% | 1015.1 hPa | 0 mm | - | 28 W/m² | - |
| 1777978518 | 20° C | 86% | 1014.7 hPa | 0 mm | - | 7 W/m² | - |
| 1777978240 | 20° C | 86% | 1014.8 hPa | 0 mm | - | 5 W/m² | - |
| 1777975818 | 20° C | 85% | 1014.6 hPa | 0 mm | - | 0 W/m² | - |
| 1777975543 | 20° C | 85% | 1014.6 hPa | 0 mm | - | 0 W/m² | - |
| 1777968329 | 21.11° C | 83% | 1014 hPa | 0 mm | - | 0 W/m² | - |
| 1777966525 | 21.11° C | 82% | 1014.1 hPa | 0 mm | - | 0 W/m² | - |
| 1777965374 | 21.11° C | 81% | 1014.3 hPa | 0 mm | - | 0 W/m² | - |
| 1777964111 | 21.67° C | 81% | 1014.4 hPa | 0 mm | - | 0 W/m² | - |
| 1777963551 | 21.67° C | 80% | 1014.4 hPa | 0 mm | - | 0 W/m² | - |
| 1777960858 | 21.67° C | 78% | 1015.4 hPa | 0 mm | - | 0 W/m² | - |
| 1777956921 | 22.78° C | 74% | 1015.7 hPa | 0 mm | - | 0 W/m² | - |
| 1777955137 | 22.78° C | 74% | 1016.1 hPa | 0 mm | - | 0 W/m² | - |
| 1777954825 | 22.78° C | 74% | 1016 hPa | 0 mm | - | 0 W/m² | - |
| 1777952732 | 23.33° C | 72% | 1015.9 hPa | 0 mm | - | 0 W/m² | - |
| 1777951826 | 23.33° C | 73% | 1016.1 hPa | 0 mm | - | 0 W/m² | - |
| 1777950929 | 23.33° C | 72% | 1015.9 hPa | 0 mm | - | 0 W/m² | - |
| 1777950335 | 23.33° C | 72% | 1016 hPa | 0 mm | - | 0 W/m² | - |
* Rain latest hour (hover to see other rain measurements)
** Current wind speed in m/s (hover to see current wind gust speed)